createdAt,value
2018-03-26T00:01:45.941Z,44.80
2018-03-26T00:04:12.201Z,42.93
2018-03-26T00:06:38.481Z,46.07
2018-03-26T00:09:04.805Z,43.27
2018-03-26T00:11:31.089Z,40.57
2018-03-26T00:13:57.362Z,43.33
2018-03-26T00:16:23.678Z,46.40
2018-03-26T00:18:50.690Z,46.97
2018-03-26T00:21:16.966Z,39.27
2018-03-26T00:23:43.224Z,47.37
2018-03-26T00:26:10.225Z,43.33
2018-03-26T00:28:36.442Z,44.97
2018-03-26T00:31:02.676Z,43.73
2018-03-26T00:33:29.368Z,45.73
2018-03-26T00:35:55.694Z,46.27
2018-03-26T00:38:21.938Z,45.90
2018-03-26T00:40:48.164Z,48.07
2018-03-26T00:43:14.805Z,46.93
2018-03-26T00:45:41.030Z,42.90
2018-03-26T00:48:07.269Z,51.43
2018-03-26T00:50:34.225Z,45.17
2018-03-26T00:53:00.554Z,46.90
2018-03-26T00:55:26.764Z,44.17
2018-03-26T00:57:54.574Z,49.90
2018-03-26T01:00:20.864Z,46.73
2018-03-26T01:02:47.082Z,55.47
2018-03-26T01:05:13.586Z,54.80
2018-03-26T01:07:39.817Z,55.83
2018-03-26T01:10:06.071Z,57.17
2018-03-26T01:12:32.309Z,58.95
2018-03-26T01:14:58.536Z,55.80
2018-03-26T01:17:24.767Z,62.57
2018-03-26T01:19:50.977Z,62.67
2018-03-26T01:22:18.194Z,60.67
2018-03-26T01:24:44.413Z,61.57
2018-03-26T01:27:10.633Z,60.20
2018-03-26T01:29:36.891Z,64.50
2018-03-26T01:32:03.124Z,61.77
2018-03-26T01:34:29.365Z,64.80
2018-03-26T01:36:55.633Z,67.12
2018-03-26T01:39:21.948Z,72.73
2018-03-26T01:41:48.169Z,64.27
2018-03-26T01:44:15.156Z,67.65
2018-03-26T01:46:41.413Z,70.95
2018-03-26T01:49:07.650Z,68.80
2018-03-26T01:51:33.939Z,69.97
2018-03-26T01:54:02.666Z,72.32
2018-03-26T01:56:28.880Z,69.12
2018-03-26T01:58:55.954Z,66.50
2018-03-26T02:01:22.190Z,73.10
2018-03-26T02:03:49.175Z,68.43
2018-03-26T02:06:15.413Z,70.80
2018-03-26T02:08:41.658Z,75.40
2018-03-26T02:11:09.122Z,72.03
2018-03-26T02:13:35.361Z,70.82
2018-03-26T02:16:02.311Z,72.13
2018-03-26T02:18:29.292Z,70.40
2018-03-26T02:20:55.659Z,70.68
2018-03-26T02:23:22.646Z,68.50
2018-03-26T02:25:49.644Z,73.85
2018-03-26T02:28:15.916Z,72.97
2018-03-26T02:30:42.162Z,73.05
2018-03-26T02:33:08.527Z,72.35
2018-03-26T02:35:34.820Z,71.43
2018-03-26T02:38:01.055Z,71.57
2018-03-26T02:40:27.310Z,72.40
2018-03-26T02:42:53.565Z,69.07
2018-03-26T02:45:19.802Z,71.18
2018-03-26T02:47:46.062Z,67.00
2018-03-26T02:50:12.280Z,68.47
2018-03-26T02:52:38.543Z,65.30
2018-03-26T02:55:05.845Z,57.75
2018-03-26T02:57:32.089Z,60.00
2018-03-26T02:59:58.301Z,63.08
2018-03-26T03:02:25.301Z,58.50
2018-03-26T03:04:51.587Z,59.75
2018-03-26T03:07:17.874Z,53.92
2018-03-26T03:09:44.153Z,58.83
2018-03-26T03:12:10.416Z,57.38
2018-03-26T03:14:36.681Z,59.20
2018-03-26T03:17:03.701Z,54.03
2018-03-26T03:19:29.952Z,54.13
2018-03-26T03:21:56.268Z,52.72
2018-03-26T03:24:22.604Z,49.60
2018-03-26T03:26:48.888Z,53.83
2018-03-26T03:29:15.105Z,53.33
2018-03-26T03:31:41.350Z,47.50
2018-03-26T03:34:07.570Z,50.60
2018-03-26T03:36:33.804Z,49.97
2018-03-26T03:39:00.057Z,49.83
2018-03-26T03:41:26.293Z,49.17
2018-03-26T03:43:52.775Z,53.42
2018-03-26T03:46:19.057Z,43.58
2018-03-26T03:48:46.045Z,46.55
2018-03-26T03:51:12.261Z,46.08
2018-03-26T03:53:38.510Z,48.13
2018-03-26T03:56:04.756Z,52.53
2018-03-26T03:58:30.972Z,44.70
2018-03-26T04:00:58.714Z,46.88
2018-03-26T04:03:25.745Z,48.80
2018-03-26T04:05:51.974Z,45.15
2018-03-26T04:08:18.211Z,47.10
2018-03-26T04:10:44.431Z,48.80
2018-03-26T04:13:10.669Z,45.05
2018-03-26T04:15:36.927Z,44.03
2018-03-26T04:18:03.178Z,51.88
2018-03-26T04:20:29.513Z,51.75
2018-03-26T04:22:57.781Z,52.75
2018-03-26T04:25:24.757Z,47.53
2018-03-26T04:27:51.094Z,50.95
2018-03-26T04:30:17.313Z,53.83
2018-03-26T04:32:44.317Z,43.30
2018-03-26T04:35:10.577Z,56.53
2018-03-26T04:37:36.825Z,55.00
2018-03-26T04:40:03.090Z,52.72
2018-03-26T04:42:30.073Z,45.38
2018-03-26T04:44:56.310Z,52.05
2018-03-26T04:47:22.534Z,54.13
2018-03-26T04:49:49.522Z,50.75
2018-03-26T04:52:16.488Z,44.75
2018-03-26T04:54:43.850Z,50.17
2018-03-26T04:57:10.092Z,54.38
2018-03-26T04:59:36.373Z,44.50
2018-03-26T05:02:03.372Z,46.47
2018-03-26T05:04:30.333Z,43.78
2018-03-26T05:06:56.560Z,47.10
2018-03-26T05:09:22.797Z,47.67
2018-03-26T05:11:49.766Z,50.42
2018-03-26T05:14:16.045Z,50.47
2018-03-26T05:16:43.374Z,46.70
2018-03-26T05:19:10.373Z,51.75
2018-03-26T05:21:36.633Z,44.70
2018-03-26T05:24:03.634Z,56.03
2018-03-26T05:26:29.872Z,50.60
2018-03-26T05:28:56.857Z,43.40
2018-03-26T05:31:23.108Z,49.65
2018-03-26T05:33:49.387Z,47.25
2018-03-26T05:36:15.666Z,45.53
2018-03-26T05:38:41.945Z,48.20
2018-03-26T05:41:08.235Z,50.40
2018-03-26T05:43:34.531Z,48.55
2018-03-26T05:46:00.802Z,52.65
2018-03-26T05:48:27.816Z,56.88
2018-03-26T05:50:54.104Z,53.40
2018-03-26T05:53:21.121Z,46.78
2018-03-26T05:55:47.410Z,56.80
2018-03-26T05:58:13.683Z,49.65
2018-03-26T06:00:41.330Z,51.42
2018-03-26T06:03:09.699Z,49.80
2018-03-26T06:05:35.985Z,51.92
2018-03-26T06:08:02.253Z,54.95
2018-03-26T06:10:30.765Z,52.50
2018-03-26T06:12:57.029Z,57.83
2018-03-26T06:15:23.326Z,61.42
2018-03-26T06:17:49.667Z,49.38
2018-03-26T06:20:15.965Z,50.85
2018-03-26T06:22:42.265Z,57.88
2018-03-26T06:25:08.572Z,47.47
2018-03-26T06:27:34.833Z,53.97
2018-03-26T06:30:01.079Z,53.13
2018-03-26T06:32:27.359Z,48.33
2018-03-26T06:34:54.472Z,46.10
2018-03-26T06:40:31.339Z,47.53
2018-03-26T06:42:57.385Z,48.53
2018-03-26T06:45:24.165Z,48.20
2018-03-26T06:47:50.201Z,49.85
2018-03-26T06:50:19.401Z,43.78
2018-03-26T06:52:46.282Z,42.40
2018-03-26T06:55:12.333Z,41.10
2018-03-26T06:57:38.370Z,40.70
2018-03-26T07:00:04.425Z,42.80
2018-03-26T07:02:30.553Z,43.42
2018-03-26T07:04:56.633Z,38.28
2018-03-26T07:07:23.446Z,38.60
2018-03-26T07:09:49.522Z,42.55
2018-03-26T07:12:16.329Z,38.28
2018-03-26T07:14:43.123Z,44.97
2018-03-26T07:17:09.922Z,49.10
2018-03-26T07:19:35.977Z,40.78
2018-03-26T07:22:02.005Z,45.70
2018-03-26T07:24:28.509Z,42.30
2018-03-26T07:26:55.297Z,46.85
2018-03-26T07:29:21.370Z,36.47
2018-03-26T07:31:47.455Z,42.10
2018-03-26T07:34:13.513Z,40.42
2018-03-26T07:36:39.572Z,38.05
2018-03-26T07:39:05.713Z,34.03
2018-03-26T07:41:33.218Z,34.77
2018-03-26T07:44:00.034Z,37.47
2018-03-26T07:46:26.183Z,38.83
2018-03-26T07:48:52.665Z,30.60
2018-03-26T07:51:19.651Z,27.23
2018-03-26T07:53:45.745Z,27.03
2018-03-26T07:56:12.736Z,21.90
2018-03-26T07:58:38.793Z,23.10
2018-03-26T08:01:05.447Z,22.93
2018-03-26T08:03:31.712Z,23.50
2018-03-26T08:05:57.968Z,25.07
2018-03-26T08:08:24.235Z,18.53
2018-03-26T08:10:50.466Z,19.07
2018-03-26T08:13:18.177Z,26.43
2018-03-26T08:15:44.481Z,22.40
2018-03-26T08:18:10.725Z,21.60
2018-03-26T08:20:36.958Z,19.03
2018-03-26T08:23:03.227Z,22.60
2018-03-26T08:25:30.213Z,22.90
2018-03-26T08:27:57.217Z,23.07
2018-03-26T08:30:23.480Z,17.47
2018-03-26T08:32:49.766Z,23.73
2018-03-26T08:35:16.128Z,25.17
2018-03-26T08:37:42.389Z,21.27
2018-03-26T08:40:09.561Z,19.63
2018-03-26T08:42:35.807Z,21.07
2018-03-26T08:45:02.090Z,25.20
2018-03-26T08:47:28.344Z,20.30
2018-03-26T08:49:54.707Z,18.43
2018-03-26T08:52:20.864Z,23.60
2018-03-26T08:54:47.175Z,22.37
2018-03-26T08:57:13.588Z,22.03
2018-03-26T08:59:39.854Z,23.57
2018-03-26T09:02:06.162Z,25.73
2018-03-26T09:04:32.439Z,24.70
2018-03-26T09:06:58.715Z,27.53
2018-03-26T09:09:24.985Z,25.97
2018-03-26T09:11:51.280Z,30.80
2018-03-26T09:14:17.581Z,24.93
2018-03-26T09:16:43.861Z,18.40
2018-03-26T09:19:10.127Z,20.53
2018-03-26T09:21:36.417Z,17.40
2018-03-26T09:24:02.709Z,23.57
2018-03-26T09:26:28.981Z,19.97
2018-03-26T09:28:56.021Z,19.93
2018-03-26T09:31:23.007Z,19.27
2018-03-26T09:33:49.962Z,23.10
2018-03-26T09:36:16.952Z,20.53
2018-03-26T09:38:43.191Z,23.03
2018-03-26T09:41:09.492Z,22.10
2018-03-26T09:43:36.450Z,17.07
2018-03-26T09:46:02.708Z,16.53
2018-03-26T09:48:29.649Z,15.20
2018-03-26T09:50:55.907Z,12.70
2018-03-26T09:53:22.154Z,15.23
2018-03-26T09:55:49.113Z,13.43
2018-03-26T09:58:15.378Z,14.83
2018-03-26T10:00:47.457Z,11.40
2018-03-26T10:03:13.701Z,11.80
2018-03-26T10:05:39.926Z,12.97
2018-03-26T10:08:06.150Z,10.03
2018-03-26T10:10:32.357Z,12.17
2018-03-26T10:12:58.581Z,10.80
2018-03-26T10:15:25.599Z,9.97
2018-03-26T10:17:52.596Z,11.50
2018-03-26T10:20:18.932Z,11.40
2018-03-26T10:22:45.174Z,10.23
2018-03-26T10:25:12.231Z,9.77
2018-03-26T10:27:38.480Z,6.90
2018-03-26T10:30:04.717Z,7.90
2018-03-26T10:32:30.945Z,9.03
2018-03-26T10:34:57.190Z,9.97
2018-03-26T10:37:24.142Z,7.63
2018-03-26T10:39:50.399Z,12.73
2018-03-26T10:42:19.868Z,8.03
2018-03-26T10:44:46.148Z,10.77
2018-03-26T10:47:12.392Z,15.90
2018-03-26T10:49:38.650Z,9.27
2018-03-26T10:52:04.868Z,10.20
2018-03-26T10:54:31.143Z,7.33
2018-03-26T10:56:57.509Z,3.33
2018-03-26T10:59:23.790Z,5.37
2018-03-26T11:01:50.031Z,10.33
2018-03-26T11:04:16.321Z,8.00
2018-03-26T11:06:43.861Z,6.90
2018-03-26T11:09:10.117Z,4.03
2018-03-26T11:11:36.330Z,4.10
2018-03-26T11:14:02.567Z,4.53
2018-03-26T11:16:28.801Z,5.47
2018-03-26T11:18:55.036Z,3.50
2018-03-26T11:21:21.281Z,3.50
2018-03-26T11:23:50.356Z,3.03
2018-03-26T11:26:16.613Z,2.70
2018-03-26T11:28:42.985Z,2.70
2018-03-26T11:31:10.009Z,6.07
2018-03-26T11:33:36.465Z,3.80
2018-03-26T11:36:02.762Z,2.50
2018-03-26T11:38:29.781Z,1.80
2018-03-26T11:40:56.172Z,3.73
2018-03-26T11:43:27.385Z,1.73
2018-03-26T11:45:53.699Z,2.37
2018-03-26T11:48:19.938Z,2.73
2018-03-26T11:50:46.226Z,3.13
2018-03-26T11:53:12.485Z,1.73
2018-03-26T11:55:38.785Z,3.23
2018-03-26T11:58:05.589Z,1.50
2018-03-26T12:00:36.958Z,6.40
2018-03-26T12:03:03.977Z,4.10
2018-03-26T12:05:30.269Z,3.33
2018-03-26T12:07:56.580Z,4.90
2018-03-26T12:10:22.821Z,3.50
2018-03-26T12:12:49.085Z,3.03
2018-03-26T12:15:15.423Z,2.83
2018-03-26T12:17:41.721Z,3.37
2018-03-26T12:20:20.498Z,2.70
2018-03-26T12:22:47.568Z,2.67
2018-03-26T12:25:15.708Z,2.60
2018-03-26T12:27:55.092Z,2.53
2018-03-26T12:30:23.085Z,3.53
2018-03-26T12:32:49.341Z,6.40
2018-03-26T12:35:32.568Z,1.87
2018-03-26T12:37:59.398Z,4.40
2018-03-26T12:40:38.025Z,1.87
2018-03-26T12:43:04.258Z,1.77
2018-03-26T12:45:43.162Z,2.50
2018-03-26T12:48:10.133Z,2.30
2018-03-26T12:50:53.073Z,4.27
2018-03-26T12:53:19.349Z,4.63
2018-03-26T12:55:45.598Z,1.87
2018-03-26T12:58:24.382Z,2.57
2018-03-26T13:01:04.812Z,2.27
2018-03-26T13:03:31.029Z,3.63
2018-03-26T13:05:58.016Z,2.40
2018-03-26T13:08:24.049Z,1.57
2018-03-26T13:10:51.130Z,2.77
2018-03-26T13:13:19.517Z,1.30
2018-03-26T13:15:45.726Z,1.83
2018-03-26T13:18:12.699Z,2.50
2018-03-26T13:20:39.018Z,2.10
2018-03-26T13:23:05.323Z,3.03
2018-03-26T13:25:31.542Z,1.93
2018-03-26T13:27:57.785Z,1.87
2018-03-26T13:30:24.022Z,1.70
2018-03-26T13:32:50.415Z,1.73
2018-03-26T13:35:16.682Z,1.97
2018-03-26T13:37:42.925Z,2.73
2018-03-26T13:40:09.165Z,1.73
2018-03-26T13:42:35.421Z,1.90
2018-03-26T13:45:02.374Z,2.93
2018-03-26T13:47:28.653Z,1.83
2018-03-26T13:49:54.965Z,1.70
2018-03-26T13:52:22.042Z,2.83
2018-03-26T13:54:48.483Z,2.10
2018-03-26T13:57:14.714Z,1.70
2018-03-26T13:59:40.962Z,2.00
2018-03-26T14:02:07.205Z,2.10
2018-03-26T14:04:33.473Z,2.67
2018-03-26T14:06:59.745Z,1.60
2018-03-26T14:09:39.235Z,1.70
2018-03-26T14:12:17.926Z,3.40
2018-03-26T14:14:56.533Z,2.00
2018-03-26T14:17:35.300Z,2.30
2018-03-26T14:20:02.289Z,2.30
2018-03-26T14:22:28.577Z,4.33
2018-03-26T14:24:54.913Z,2.60
2018-03-26T14:27:21.166Z,3.57
2018-03-26T14:29:48.169Z,3.70
2018-03-26T14:32:15.136Z,2.50
2018-03-26T14:34:49.283Z,2.43
2018-03-26T14:37:15.524Z,3.60
2018-03-26T14:39:41.753Z,2.83
2018-03-26T14:42:07.993Z,2.70
2018-03-26T14:44:34.205Z,2.30
2018-03-26T14:47:00.426Z,2.90
2018-03-26T14:49:26.653Z,4.83
2018-03-26T14:51:53.032Z,3.30
2018-03-26T14:54:19.238Z,4.00
2018-03-26T14:56:46.233Z,1.17
2018-03-26T14:59:12.473Z,1.40
2018-03-26T15:01:38.777Z,1.70
2018-03-26T15:04:04.975Z,1.23
2018-03-26T15:06:31.194Z,1.63
2018-03-26T15:08:57.436Z,3.17
2018-03-26T15:11:24.381Z,2.07
2018-03-26T15:13:50.665Z,2.40
2018-03-26T15:16:16.927Z,5.80
2018-03-26T15:18:43.973Z,2.40
2018-03-26T15:21:10.188Z,2.70
2018-03-26T15:23:36.441Z,1.70
2018-03-26T15:26:02.746Z,2.27
2018-03-26T15:28:29.798Z,2.20
2018-03-26T15:30:56.973Z,2.90
2018-03-26T15:33:23.382Z,2.30
2018-03-26T15:35:49.714Z,2.50
2018-03-26T15:38:16.867Z,2.87
2018-03-26T15:40:43.191Z,1.97
2018-03-26T15:43:10.277Z,3.00
2018-03-26T15:45:37.389Z,1.70
2018-03-26T15:48:03.660Z,2.30
2018-03-26T15:50:32.424Z,3.20
2018-03-26T15:52:59.417Z,2.87
2018-03-26T15:55:25.786Z,2.60
2018-03-26T15:57:53.113Z,4.07
2018-03-26T16:00:19.449Z,3.20
2018-03-26T16:02:52.477Z,2.37
2018-03-26T16:05:18.777Z,8.40
2018-03-26T16:07:45.791Z,2.60
2018-03-26T16:10:12.081Z,3.40
2018-03-26T16:12:38.375Z,4.50
2018-03-26T16:15:04.650Z,3.43
2018-03-26T16:17:31.704Z,3.90
2018-03-26T16:20:00.482Z,3.80
2018-03-26T16:22:26.761Z,3.10
2018-03-26T16:24:53.777Z,2.63
2018-03-26T16:27:20.061Z,3.83
2018-03-26T16:29:47.858Z,2.90
2018-03-26T16:32:14.088Z,4.00
2018-03-26T16:34:40.309Z,3.20
2018-03-26T16:37:06.566Z,3.17
2018-03-26T16:39:32.866Z,4.33
2018-03-26T16:42:11.649Z,2.90
2018-03-26T16:44:37.891Z,4.13
2018-03-26T16:47:04.205Z,4.30
2018-03-26T16:49:30.444Z,3.57
2018-03-26T16:51:56.731Z,3.37
2018-03-26T16:54:23.033Z,3.67
2018-03-26T16:56:50.065Z,5.53
2018-03-26T16:59:16.389Z,3.50
2018-03-26T17:01:42.698Z,3.33
2018-03-26T17:04:08.958Z,5.53
2018-03-26T17:06:35.755Z,5.57
2018-03-26T17:09:02.043Z,5.33
2018-03-26T17:11:28.303Z,4.57
2018-03-26T17:13:54.615Z,4.10
2018-03-26T17:16:21.921Z,4.03
2018-03-26T17:18:49.116Z,5.37
2018-03-26T17:21:16.409Z,4.30
2018-03-26T17:23:43.474Z,4.90
2018-03-26T17:26:10.525Z,3.10
2018-03-26T17:28:36.917Z,3.50
2018-03-26T17:31:03.950Z,4.00
2018-03-26T17:33:30.242Z,6.00
2018-03-26T17:35:56.718Z,4.00
2018-03-26T17:38:23.822Z,4.07
2018-03-26T17:40:50.816Z,4.67
2018-03-26T17:43:17.115Z,6.50
2018-03-26T17:45:43.422Z,3.47
2018-03-26T17:48:09.680Z,4.83
2018-03-26T17:50:36.774Z,4.83
2018-03-26T17:53:03.458Z,4.57
2018-03-26T17:55:29.729Z,6.63
2018-03-26T17:57:56.844Z,4.67
2018-03-26T18:00:23.152Z,3.80
2018-03-26T18:02:49.430Z,3.60
2018-03-26T18:05:15.687Z,4.20
2018-03-26T18:07:41.976Z,5.00
2018-03-26T18:10:09.040Z,4.00
2018-03-26T18:12:35.281Z,3.73
2018-03-26T18:15:01.591Z,3.70
2018-03-26T18:17:28.949Z,3.00
2018-03-26T18:19:55.229Z,3.93
2018-03-26T18:22:21.545Z,5.87
2018-03-26T18:24:48.589Z,3.50
2018-03-26T18:27:14.833Z,3.20
2018-03-26T18:29:41.876Z,4.37
2018-03-26T18:32:08.110Z,3.70
2018-03-26T18:34:34.345Z,4.50
2018-03-26T18:37:01.315Z,4.30
2018-03-26T18:39:27.566Z,5.10
2018-03-26T18:41:53.829Z,5.30
2018-03-26T18:44:20.860Z,5.80
2018-03-26T18:46:47.130Z,5.00
2018-03-26T18:49:14.164Z,4.80
2018-03-26T18:51:40.425Z,4.40
2018-03-26T18:54:06.675Z,6.20
2018-03-26T18:56:32.945Z,5.77
2018-03-26T18:58:59.933Z,8.30
2018-03-26T19:01:26.901Z,7.53
2018-03-26T19:03:53.237Z,12.43
2018-03-26T19:06:19.529Z,9.83
2018-03-26T19:08:46.507Z,9.00
2018-03-26T19:11:12.867Z,7.13
2018-03-26T19:13:39.130Z,11.20
2018-03-26T19:16:06.065Z,7.10
2018-03-26T19:18:32.321Z,10.13
2018-03-26T19:20:58.573Z,10.80
2018-03-26T19:23:24.836Z,6.50
2018-03-26T19:25:51.073Z,8.27
2018-03-26T19:28:17.350Z,6.90
2018-03-26T19:30:44.330Z,6.73
2018-03-26T19:33:10.577Z,7.07
2018-03-26T19:35:36.842Z,6.30
2018-03-26T19:38:03.087Z,9.73
2018-03-26T19:40:29.316Z,5.43
2018-03-26T19:42:55.559Z,6.13
2018-03-26T19:45:21.780Z,6.60
2018-03-26T19:47:48.046Z,6.47
2018-03-26T19:50:14.301Z,6.63
2018-03-26T19:52:40.544Z,8.17
2018-03-26T19:55:07.841Z,9.37
2018-03-26T19:57:34.944Z,8.17
2018-03-26T20:00:01.094Z,7.90
2018-03-26T20:02:27.320Z,6.37
2018-03-26T20:04:54.302Z,8.10
2018-03-26T20:07:20.513Z,8.13
2018-03-26T20:09:46.961Z,13.90
2018-03-26T20:12:13.946Z,10.07
2018-03-26T20:14:40.214Z,6.10
2018-03-26T20:17:07.202Z,6.03
2018-03-26T20:19:34.085Z,6.73
2018-03-26T20:22:00.302Z,6.03
2018-03-26T20:24:26.536Z,9.50
2018-03-26T20:26:52.745Z,6.80
2018-03-26T20:29:19.061Z,7.47
2018-03-26T20:31:46.153Z,7.30
2018-03-26T20:34:12.393Z,9.10
2018-03-26T20:36:38.689Z,8.67
2018-03-26T20:39:04.941Z,8.07
2018-03-26T20:41:31.781Z,9.17
2018-03-26T20:43:58.069Z,8.43
2018-03-26T20:46:26.112Z,10.63
2018-03-26T20:48:52.397Z,6.13
2018-03-26T20:51:20.329Z,5.87
2018-03-26T20:53:46.609Z,8.07
2018-03-26T20:56:12.993Z,7.53
2018-03-26T20:58:39.992Z,9.50
2018-03-26T21:01:06.286Z,12.68
2018-03-26T21:03:32.553Z,9.00
2018-03-26T21:05:58.821Z,8.38
2018-03-26T21:08:25.061Z,11.07
2018-03-26T21:10:51.420Z,9.52
2018-03-26T21:13:17.881Z,11.38
2018-03-26T21:15:44.856Z,13.55
2018-03-26T21:18:11.365Z,12.50
2018-03-26T21:20:37.672Z,10.48
2018-03-26T21:23:04.842Z,14.93
2018-03-26T21:25:31.080Z,12.23
2018-03-26T21:27:57.448Z,16.70
2018-03-26T21:30:23.737Z,11.60
2018-03-26T21:32:50.083Z,12.95
2018-03-26T21:35:17.103Z,13.32
2018-03-26T21:37:44.097Z,13.80
2018-03-26T21:40:10.387Z,11.40
2018-03-26T21:42:36.911Z,14.18
2018-03-26T21:45:03.082Z,13.20
2018-03-26T21:47:29.126Z,12.68
2018-03-26T21:49:55.353Z,12.77
2018-03-26T21:52:21.437Z,13.35
2018-03-26T21:54:47.573Z,16.33
2018-03-26T21:57:13.685Z,13.77
2018-03-26T21:59:39.740Z,18.87
2018-03-26T22:02:06.744Z,15.10
2018-03-26T22:04:33.687Z,15.07
2018-03-26T22:07:00.453Z,16.75
2018-03-26T22:09:26.630Z,15.57
2018-03-26T22:11:53.464Z,13.15
2018-03-26T22:14:19.568Z,16.80
2018-03-26T22:16:45.737Z,15.82
2018-03-26T22:19:11.948Z,12.30
2018-03-26T22:21:38.269Z,18.20
2018-03-26T22:24:04.513Z,14.30
2018-03-26T22:26:30.661Z,14.13
2018-03-26T22:28:56.823Z,16.15
2018-03-26T22:31:23.245Z,13.48
2018-03-26T22:33:49.592Z,15.70
2018-03-26T22:36:15.952Z,13.02
2018-03-26T22:38:42.295Z,18.95
2018-03-26T22:41:08.685Z,15.85
2018-03-26T22:43:35.019Z,16.27
2018-03-26T22:46:02.214Z,18.30
2018-03-26T22:48:29.396Z,14.10
2018-03-26T22:50:55.637Z,15.85
2018-03-26T22:53:21.925Z,19.62
2018-03-26T22:55:49.044Z,19.30
2018-03-26T22:58:15.350Z,18.37
2018-03-26T23:00:41.708Z,19.67
2018-03-26T23:03:08.014Z,22.37
2018-03-26T23:05:35.134Z,18.12
2018-03-26T23:08:01.380Z,17.52
2018-03-26T23:10:27.657Z,20.95
2018-03-26T23:12:53.952Z,23.00
2018-03-26T23:15:20.438Z,25.55
2018-03-26T23:17:46.674Z,25.30
2018-03-26T23:20:12.954Z,28.15
2018-03-26T23:22:45.374Z,24.80
2018-03-26T23:25:11.664Z,28.48
2018-03-26T23:27:38.637Z,25.15
2018-03-26T23:30:04.941Z,26.12
2018-03-26T23:32:31.916Z,29.25
2018-03-26T23:34:58.184Z,28.80
2018-03-26T23:37:24.425Z,26.15
2018-03-26T23:39:50.676Z,27.50
2018-03-26T23:42:16.927Z,28.27
2018-03-26T23:44:43.249Z,28.85
2018-03-26T23:47:09.491Z,30.70
2018-03-26T23:49:35.765Z,23.77
2018-03-26T23:52:02.005Z,27.77
2018-03-26T23:54:28.256Z,23.87
2018-03-26T23:56:54.477Z,25.10
2018-03-26T23:59:20.760Z,27.45
